Hunt Field
KLND : now visible

Airfield :











YOU CAN JOIN US ON...

 
LOGIN :

Register | Disclaimer

   EN    FR    IT 

 









Legend :    VFR   Marginal VFR   IFR   Intensive IFR   Very Intensive IFR
Visi :
Ceiling :
>= 8 km
>= 3000ft
5 to 8 km
1000 to 3000 ft
1500m to 5 km
500 to 1000 ft
800 to 1500m
200 to 500 ft
< 800m
< 200 ft
Symbols :   Thunderstorms  Fog  Heavy snow  Heavy precipitations  Wind > 20 kt






- Airport Elevation : 5586 ft


KLND - Hunt Field

CURRENT METAR :
  • 042353Z AUTO 11006KT 9SM CLR 29/06 A3020 RMK AO2 SLP157 T02940056 10300 20267 55014

EXPIRED METARs :
  • 042253Z AUTO 00000KT 9SM CLR 29/03 A3019 RMK AO2 SLP154 T02890033
  • 042153Z AUTO 15003KT 9SM CLR 28/03 A3022 RMK AO2 SLP165 T02830033

TAF KLND
Valid from the 05 at 00:00 until the 06 at 00:00 UTC


042324Z 0500/0524 VRB05KT P6SM SCT110
FM050200 25008KT P6SM FEW120
FM051400 VRB05KT P6SM FEW120
KZLC FIR / North America



MET'MAP, your aeronautical weather chart ! - Copyright ORBIFLY December 2007 - Disclaimer

ORBIFLY MET'MAP TEAM :

Programming & Development : Alexandra Zaïnal
Concept & original design : Baudouin d'Aumeries
Assistance for programming : Marc-Olivier Méhu
Technical & hardware support : Manuel Goepfert

Contact : metmap@orbifly.com




SOURCES & CREDITS :

   NOAA       Earth
Advisory